createdAt,value
2022-09-12T00:02:28.631Z,11.56
2022-09-12T00:05:31.316Z,11.58
2022-09-12T00:08:32.952Z,11.61
2022-09-12T00:11:39.834Z,11.63
2022-09-12T00:14:41.605Z,11.64
2022-09-12T00:17:43.257Z,11.64
2022-09-12T00:20:46.500Z,11.62
2022-09-12T00:23:49.276Z,11.58
2022-09-12T00:26:51.402Z,11.53
2022-09-12T00:29:53.237Z,11.49
2022-09-12T00:32:55.112Z,11.46
2022-09-12T00:35:57.153Z,11.42
2022-09-12T00:38:59.402Z,11.39
2022-09-12T00:42:01.855Z,11.35
2022-09-12T00:45:03.965Z,11.32
2022-09-12T00:48:05.689Z,11.28
2022-09-12T00:51:07.582Z,11.24
2022-09-12T00:54:13.444Z,11.20
2022-09-12T00:57:16.735Z,11.18
2022-09-12T01:00:21.724Z,11.17
2022-09-12T01:03:24.332Z,11.16
2022-09-12T01:06:35.366Z,11.16
2022-09-12T01:09:38.133Z,11.16
2022-09-12T01:12:41.511Z,11.15
2022-09-12T01:15:43.249Z,11.14
2022-09-12T01:18:49.881Z,11.10
2022-09-12T01:22:28.831Z,11.08
2022-09-12T01:25:54.952Z,11.06
2022-09-12T01:29:12.034Z,11.07
2022-09-12T01:32:51.589Z,11.08
2022-09-12T01:36:36.655Z,11.09
2022-09-12T01:39:51.562Z,11.07
2022-09-12T01:43:05.386Z,11.08
2022-09-12T01:46:15.495Z,11.10
2022-09-12T01:49:25.034Z,11.12
2022-09-12T01:52:32.471Z,11.15
2022-09-12T01:55:37.767Z,11.16
2022-09-12T01:58:45.791Z,11.19
2022-09-12T02:02:17.887Z,11.22
2022-09-12T02:05:33.869Z,11.25
2022-09-12T02:08:45.596Z,11.26
2022-09-12T02:11:48.713Z,11.26
2022-09-12T02:14:55.414Z,11.25
2022-09-12T02:17:58.353Z,11.21
2022-09-12T02:21:01.336Z,11.15
2022-09-12T02:24:05.132Z,11.08
2022-09-12T02:27:19.978Z,11.04
2022-09-12T02:30:22.364Z,11.02
2022-09-12T02:33:27.961Z,11.00
2022-09-12T02:36:34.639Z,10.98
2022-09-12T02:39:37.305Z,10.97
2022-09-12T02:42:38.979Z,10.97
2022-09-12T02:45:41.101Z,10.96
2022-09-12T02:48:43.712Z,10.97
2022-09-12T02:51:46.530Z,10.98
2022-09-12T02:54:48.351Z,11.00
2022-09-12T02:57:50.040Z,11.02
2022-09-12T03:00:53.201Z,11.03
2022-09-12T03:04:09.943Z,11.04
2022-09-12T03:07:37.924Z,11.03
2022-09-12T03:11:06.537Z,11.01
2022-09-12T03:14:37.312Z,11.01
2022-09-12T03:18:17.531Z,11.00
2022-09-12T03:21:33.809Z,10.97
2022-09-12T03:24:38.969Z,10.94
2022-09-12T03:27:45.666Z,10.91
2022-09-12T03:30:49.670Z,10.88
2022-09-12T03:33:51.477Z,10.84
2022-09-12T03:36:57.264Z,10.81
2022-09-12T03:39:59.114Z,10.75
2022-09-12T03:43:01.454Z,10.69
2022-09-12T03:46:03.178Z,10.63
2022-09-12T03:49:06.100Z,10.56
2022-09-12T03:52:08.261Z,10.52
2022-09-12T03:55:09.941Z,10.49
2022-09-12T03:58:11.656Z,10.44
2022-09-12T04:01:17.395Z,10.39
2022-09-12T04:04:19.265Z,10.35
2022-09-12T04:07:21.141Z,10.31
2022-09-12T04:10:23.073Z,10.24
2022-09-12T04:13:25.906Z,10.17
2022-09-12T04:16:27.609Z,10.10
2022-09-12T04:19:29.400Z,10.06
2022-09-12T04:22:32.026Z,10.04
2022-09-12T04:25:34.014Z,10.05
2022-09-12T04:28:37.285Z,10.05
2022-09-12T04:31:39.542Z,10.06
2022-09-12T04:34:41.871Z,10.07
2022-09-12T04:37:44.346Z,10.09
2022-09-12T04:40:45.957Z,10.11
2022-09-12T04:43:48.543Z,10.13
2022-09-12T04:46:50.378Z,10.18
2022-09-12T04:49:52.454Z,10.25
2022-09-12T04:52:54.833Z,10.33
2022-09-12T04:55:56.490Z,10.40
2022-09-12T04:59:00.626Z,10.46
2022-09-12T05:02:02.768Z,10.53
2022-09-12T05:05:04.727Z,10.61
2022-09-12T05:08:06.485Z,10.69
2022-09-12T05:11:13.073Z,10.78
2022-09-12T05:14:14.961Z,10.90
2022-09-12T05:17:16.634Z,11.05
2022-09-12T05:20:18.461Z,11.28
2022-09-12T05:23:21.167Z,11.25
2022-09-12T05:26:23.575Z,11.42
2022-09-12T05:29:26.123Z,11.46
2022-09-12T05:32:31.873Z,11.34
2022-09-12T05:35:33.680Z,11.24
2022-09-12T05:38:35.634Z,11.19
2022-09-12T05:41:37.469Z,11.34
2022-09-12T05:44:39.193Z,11.38
2022-09-12T05:47:42.039Z,11.37
2022-09-12T05:50:43.910Z,11.32
2022-09-12T05:53:50.220Z,11.45
2022-09-12T05:56:51.944Z,11.75
2022-09-12T05:59:54.284Z,12.04
2022-09-12T06:02:56.283Z,12.50
2022-09-12T06:06:01.297Z,12.69
2022-09-12T06:09:04.622Z,13.07
2022-09-12T06:12:07.866Z,13.28
2022-09-12T06:15:11.180Z,13.46
2022-09-12T06:18:13.289Z,13.49
2022-09-12T06:21:15.983Z,13.76
2022-09-12T06:24:18.730Z,13.83
2022-09-12T06:27:20.715Z,13.51
2022-09-12T06:30:25.343Z,13.11
2022-09-12T06:33:27.284Z,12.87
2022-09-12T06:36:36.291Z,12.81
2022-09-12T06:39:38.540Z,12.96
2022-09-12T06:42:40.330Z,13.40
2022-09-12T06:45:49.452Z,13.28
2022-09-12T06:48:51.264Z,13.28
2022-09-12T06:51:52.993Z,13.22
2022-09-12T06:54:54.815Z,13.57
2022-09-12T06:57:56.710Z,13.79
2022-09-12T07:01:21.764Z,13.93
2022-09-12T07:04:23.614Z,14.02
2022-09-12T07:07:25.337Z,14.41
2022-09-12T07:10:27.653Z,14.26
2022-09-12T07:13:29.965Z,14.21
2022-09-12T07:16:31.913Z,14.23
2022-09-12T07:19:33.768Z,13.90
2022-09-12T07:22:35.492Z,13.66
2022-09-12T07:25:37.828Z,14.21
2022-09-12T07:28:40.195Z,14.50
2022-09-12T07:31:42.792Z,14.37
2022-09-12T07:34:45.547Z,14.34
2022-09-12T07:37:47.550Z,14.54
2022-09-12T07:40:49.878Z,14.63
2022-09-12T07:43:56.080Z,14.72
2022-09-12T07:46:58.062Z,15.64
2022-09-12T07:50:00.041Z,16.39
2022-09-12T07:53:03.360Z,16.31
2022-09-12T07:56:06.599Z,15.78
2022-09-12T07:59:09.188Z,15.22
2022-09-12T08:02:17.695Z,15.20
2022-09-12T08:05:21.144Z,16.23
2022-09-12T08:08:22.937Z,16.15
2022-09-12T08:11:28.063Z,15.60
2022-09-12T08:14:30.324Z,15.50
2022-09-12T08:17:32.057Z,15.35
2022-09-12T08:20:33.865Z,16.20
2022-09-12T08:23:35.803Z,17.11
2022-09-12T08:26:37.767Z,17.60
2022-09-12T08:29:39.550Z,17.43
2022-09-12T08:32:41.312Z,17.36
2022-09-12T08:35:43.147Z,17.83
2022-09-12T08:38:47.178Z,18.17
2022-09-12T08:41:57.493Z,18.73
2022-09-12T08:45:17.825Z,18.76
2022-09-12T08:48:20.014Z,18.31
2022-09-12T08:51:22.240Z,18.14
2022-09-12T08:54:27.640Z,17.97
2022-09-12T08:57:29.753Z,18.43
2022-09-12T09:00:59.467Z,18.96
2022-09-12T09:04:25.778Z,19.43
2022-09-12T09:07:51.909Z,19.72
2022-09-12T09:11:05.258Z,18.89
2022-09-12T09:14:36.500Z,18.05
2022-09-12T09:17:40.478Z,17.84
2022-09-12T09:20:49.870Z,17.95
2022-09-12T09:23:57.448Z,18.76
2022-09-12T09:27:29.801Z,19.27
2022-09-12T09:30:35.944Z,19.54
2022-09-12T09:33:38.008Z,19.72
2022-09-12T09:36:49.910Z,20.13
2022-09-12T09:40:19.603Z,20.19
2022-09-12T09:43:23.937Z,19.28
2022-09-12T09:46:27.179Z,18.66
2022-09-12T09:49:32.198Z,18.26
2022-09-12T09:52:36.029Z,18.76
2022-09-12T09:55:43.947Z,18.86
2022-09-12T09:58:45.840Z,19.72
2022-09-12T10:01:52.923Z,19.77
2022-09-12T10:04:58.844Z,19.25
2022-09-12T10:08:00.926Z,19.68
2022-09-12T10:11:15.232Z,20.09
2022-09-12T10:14:38.850Z,20.04
2022-09-12T10:17:49.430Z,20.43
2022-09-12T10:20:51.492Z,20.77
2022-09-12T10:24:01.335Z,20.95
2022-09-12T10:27:12.634Z,20.76
2022-09-12T10:30:14.760Z,20.87
2022-09-12T10:33:17.150Z,20.72
2022-09-12T10:36:20.170Z,20.18
2022-09-12T10:39:22.577Z,19.90
2022-09-12T10:42:53.005Z,19.93
2022-09-12T10:46:01.157Z,19.60
2022-09-12T10:49:28.948Z,19.61
2022-09-12T10:52:31.003Z,19.18
2022-09-12T10:55:34.849Z,19.33
2022-09-12T10:58:56.150Z,19.87
2022-09-12T11:02:05.455Z,20.04
2022-09-12T11:05:38.703Z,20.62
2022-09-12T11:08:55.769Z,21.26
2022-09-12T11:12:10.532Z,21.13
2022-09-12T11:15:31.089Z,21.69
2022-09-12T11:18:45.271Z,22.02
2022-09-12T11:22:10.865Z,21.15
2022-09-12T11:25:26.182Z,21.09
2022-09-12T11:28:49.192Z,21.53
2022-09-12T11:32:25.209Z,21.82
2022-09-12T11:35:32.604Z,22.07
2022-09-12T11:38:52.746Z,22.30
2022-09-12T11:42:00.421Z,22.11
2022-09-12T11:45:24.771Z,21.34
2022-09-12T11:48:52.394Z,21.59
2022-09-12T11:51:56.455Z,22.09
2022-09-12T11:55:05.408Z,22.23
2022-09-12T11:58:08.853Z,21.70
2022-09-12T12:01:23.272Z,20.66
2022-09-12T12:04:30.258Z,20.09
2022-09-12T12:07:44.773Z,19.96
2022-09-12T12:11:00.042Z,19.62
2022-09-12T12:14:03.274Z,19.44
2022-09-12T12:17:05.335Z,19.34
2022-09-12T12:20:16.360Z,19.33
2022-09-12T12:23:25.631Z,19.39
2022-09-12T12:26:39.859Z,19.32
2022-09-12T12:29:44.459Z,19.57
2022-09-12T12:32:46.635Z,19.68
2022-09-12T12:36:00.586Z,19.79
2022-09-12T12:39:33.350Z,19.90
2022-09-12T12:42:35.392Z,19.94
2022-09-12T12:45:37.786Z,19.94
2022-09-12T12:49:21.785Z,20.04
2022-09-12T12:52:25.517Z,20.11
2022-09-12T12:55:46.508Z,19.80
2022-09-12T12:58:48.291Z,19.61
2022-09-12T13:01:55.643Z,19.36
2022-09-12T13:04:59.782Z,19.55
2022-09-12T13:08:10.554Z,19.52
2022-09-12T13:11:14.547Z,19.74
2022-09-12T13:14:42.825Z,19.47
2022-09-12T13:17:45.053Z,18.94
2022-09-12T13:20:54.853Z,19.01
2022-09-12T13:24:14.169Z,19.58
2022-09-12T13:27:25.493Z,19.61
2022-09-12T13:30:33.161Z,20.05
2022-09-12T13:33:43.959Z,20.54
2022-09-12T13:37:15.346Z,20.91
2022-09-12T13:40:54.917Z,20.98
2022-09-12T13:43:57.259Z,20.58
2022-09-12T13:47:01.113Z,20.39
2022-09-12T13:50:04.787Z,20.52
2022-09-12T13:53:12.752Z,20.46
2022-09-12T13:56:18.962Z,20.36
2022-09-12T13:59:20.823Z,20.35
2022-09-12T14:02:25.506Z,20.17
2022-09-12T14:05:27.307Z,20.07
2022-09-12T14:08:29.922Z,20.08
2022-09-12T14:11:33.895Z,20.21
2022-09-12T14:14:37.779Z,20.39
2022-09-12T14:17:39.712Z,20.33
2022-09-12T14:20:41.982Z,20.05
2022-09-12T14:23:45.192Z,19.88
2022-09-12T14:26:47.979Z,19.81
2022-09-12T14:29:53.539Z,19.74
2022-09-12T14:33:04.057Z,19.72
2022-09-12T14:36:12.116Z,19.68
2022-09-12T14:39:28.181Z,19.64
2022-09-12T14:42:31.358Z,19.70
2022-09-12T14:45:33.163Z,19.82
2022-09-12T14:48:36.806Z,20.14
2022-09-12T14:51:41.249Z,20.40
2022-09-12T14:54:44.587Z,20.19
2022-09-12T14:57:46.640Z,20.05
2022-09-12T15:01:11.460Z,20.34
2022-09-12T15:04:43.201Z,20.77
2022-09-12T15:07:50.811Z,20.99
2022-09-12T15:10:52.918Z,21.08
2022-09-12T15:13:54.707Z,21.18
2022-09-12T15:16:56.883Z,21.24
2022-09-12T15:19:58.722Z,21.29
2022-09-12T15:23:00.632Z,21.27
2022-09-12T15:26:03.313Z,21.33
2022-09-12T15:29:05.101Z,21.68
2022-09-12T15:32:06.971Z,22.12
2022-09-12T15:35:20.925Z,22.47
2022-09-12T15:38:26.541Z,22.49
2022-09-12T15:41:36.945Z,23.05
2022-09-12T15:44:39.921Z,23.41
2022-09-12T15:47:41.652Z,23.19
2022-09-12T15:50:43.361Z,22.71
2022-09-12T15:53:46.097Z,22.06
2022-09-12T15:56:47.729Z,21.49
2022-09-12T15:59:49.358Z,20.95
2022-09-12T16:02:52.805Z,20.42
2022-09-12T16:05:56.652Z,19.96
2022-09-12T16:08:58.420Z,19.48
2022-09-12T16:12:00.268Z,19.13
2022-09-12T16:15:02.680Z,18.78
2022-09-12T16:18:04.402Z,18.47
2022-09-12T16:21:08.208Z,18.17
2022-09-12T16:24:13.176Z,17.91
2022-09-12T16:27:14.967Z,17.67
2022-09-12T16:30:16.686Z,17.44
2022-09-12T16:33:18.637Z,17.19
2022-09-12T16:36:21.612Z,16.86
2022-09-12T16:39:23.867Z,16.55
2022-09-12T16:42:25.625Z,16.28
2022-09-12T16:45:27.248Z,16.01
2022-09-12T16:48:29.705Z,15.76
2022-09-12T16:51:33.873Z,15.54
2022-09-12T16:54:36.107Z,15.36
2022-09-12T16:57:37.921Z,15.15
2022-09-12T17:00:39.859Z,14.92
2022-09-12T17:03:41.886Z,14.71
2022-09-12T17:06:44.226Z,14.49
2022-09-12T17:09:48.053Z,14.31
2022-09-12T17:12:50.300Z,14.16
2022-09-12T17:15:52.093Z,13.99
2022-09-12T17:18:54.322Z,13.89
2022-09-12T17:21:57.170Z,13.78
2022-09-12T17:24:59.010Z,13.66
2022-09-12T17:28:00.677Z,13.55
2022-09-12T17:31:08.887Z,13.45
2022-09-12T17:34:14.630Z,13.34
2022-09-12T17:37:17.733Z,13.23
2022-09-12T17:40:19.897Z,13.11
2022-09-12T17:43:21.753Z,12.97
2022-09-12T17:46:26.740Z,12.84
2022-09-12T17:49:28.622Z,12.68
2022-09-12T17:52:30.992Z,12.54
2022-09-12T17:55:36.933Z,12.41
2022-09-12T17:58:39.135Z,12.30
2022-09-12T18:01:59.807Z,12.16
2022-09-12T18:05:05.353Z,11.84
2022-09-12T18:08:07.162Z,11.50
2022-09-12T18:11:08.925Z,11.27
2022-09-12T18:14:14.009Z,11.03
2022-09-12T18:17:17.108Z,10.83
2022-09-12T18:20:19.034Z,10.69
2022-09-12T18:23:20.894Z,10.55
2022-09-12T18:26:22.802Z,10.44
2022-09-12T18:29:25.603Z,10.36
2022-09-12T18:32:27.677Z,10.35
2022-09-12T18:35:29.374Z,10.30
2022-09-12T18:38:31.886Z,10.21
2022-09-12T18:41:34.037Z,10.14
2022-09-12T18:44:36.016Z,10.07
2022-09-12T18:47:37.936Z,10.05
2022-09-12T18:50:39.744Z,10.06
2022-09-12T18:53:42.738Z,10.04
2022-09-12T18:56:45.686Z,10.03
2022-09-12T18:59:47.850Z,9.99
2022-09-12T19:02:49.486Z,9.90
2022-09-12T19:05:51.320Z,9.82
2022-09-12T19:08:54.255Z,9.76
2022-09-12T19:11:56.168Z,9.69
2022-09-12T19:14:58.214Z,9.64
2022-09-12T19:18:00.219Z,9.58
2022-09-12T19:21:02.256Z,9.51
2022-09-12T19:24:06.527Z,9.48
2022-09-12T19:27:08.315Z,9.48
2022-09-12T19:30:10.951Z,9.48
2022-09-12T19:33:12.773Z,9.50
2022-09-12T19:36:43.305Z,9.49
2022-09-12T19:39:39.135Z,9.30
2022-09-12T19:42:41.456Z,9.10
2022-09-12T19:45:49.552Z,8.89
2022-09-12T19:49:05.615Z,8.77
2022-09-12T19:52:08.400Z,8.88
2022-09-12T19:55:10.893Z,9.00
2022-09-12T19:58:13.663Z,9.06
2022-09-12T20:01:20.228Z,8.93
2022-09-12T20:04:21.892Z,8.76
2022-09-12T20:07:23.735Z,8.58
2022-09-12T20:10:27.916Z,8.41
2022-09-12T20:13:29.613Z,8.28
2022-09-12T20:16:33.614Z,8.22
2022-09-12T20:19:37.966Z,8.18
2022-09-12T20:22:40.283Z,8.14
2022-09-12T20:25:44.572Z,8.08
2022-09-12T20:28:46.489Z,7.97
2022-09-12T20:31:48.313Z,7.87
2022-09-12T20:34:49.980Z,7.78
2022-09-12T20:37:51.501Z,7.70
2022-09-12T20:40:53.113Z,7.67
2022-09-12T20:43:56.521Z,7.61
2022-09-12T20:46:58.309Z,7.50
2022-09-12T20:50:00.134Z,7.46
2022-09-12T20:53:01.943Z,7.44
2022-09-12T20:56:05.438Z,7.43
2022-09-12T20:59:07.685Z,7.43
2022-09-12T21:02:13.082Z,7.42
2022-09-12T21:05:14.712Z,7.40
2022-09-12T21:08:16.607Z,7.30
2022-09-12T21:11:19.966Z,7.21
2022-09-12T21:14:21.575Z,7.14
2022-09-12T21:17:23.077Z,7.12
2022-09-12T21:20:24.932Z,7.13
2022-09-12T21:23:27.515Z,7.13
2022-09-12T21:26:30.049Z,7.11
2022-09-12T21:29:31.813Z,7.09
2022-09-12T21:32:36.046Z,7.07
2022-09-12T21:35:37.929Z,7.03
2022-09-12T21:38:39.578Z,6.90
2022-09-12T21:41:41.274Z,6.71
2022-09-12T21:44:42.805Z,6.63
2022-09-12T21:47:44.872Z,6.62
2022-09-12T21:50:50.392Z,6.59
2022-09-12T21:53:54.487Z,6.52
2022-09-12T21:56:56.423Z,6.47
2022-09-12T22:00:00.654Z,6.45
2022-09-12T22:03:02.710Z,6.41
2022-09-12T22:06:07.467Z,6.36
2022-09-12T22:09:09.825Z,6.32
2022-09-12T22:12:11.630Z,6.34
2022-09-12T22:15:38.921Z,6.38
2022-09-12T22:18:39.384Z,6.43
2022-09-12T22:22:01.042Z,6.45
2022-09-12T22:25:02.685Z,6.43
2022-09-12T22:28:04.724Z,6.39
2022-09-12T22:31:06.788Z,6.38
2022-09-12T22:34:08.678Z,6.36
2022-09-12T22:37:13.192Z,6.32
2022-09-12T22:40:15.883Z,6.26
2022-09-12T22:43:17.829Z,6.21
2022-09-12T22:46:19.730Z,6.22
2022-09-12T22:49:21.499Z,6.14
2022-09-12T22:52:24.798Z,6.08
2022-09-12T22:55:26.556Z,6.14
2022-09-12T22:58:28.424Z,6.16
2022-09-12T23:01:31.925Z,6.21
2022-09-12T23:04:33.665Z,6.30
2022-09-12T23:07:55.640Z,6.42
2022-09-12T23:11:01.737Z,6.50
2022-09-12T23:14:08.987Z,6.54
2022-09-12T23:17:10.728Z,6.57
2022-09-12T23:20:12.727Z,6.55
2022-09-12T23:23:14.479Z,6.51
2022-09-12T23:26:28.291Z,6.50
2022-09-12T23:29:30.182Z,6.47
2022-09-12T23:32:34.373Z,6.40
2022-09-12T23:35:36.404Z,6.36
2022-09-12T23:38:38.240Z,6.33
2022-09-12T23:41:41.745Z,6.35
2022-09-12T23:44:43.769Z,6.39
2022-09-12T23:47:45.368Z,6.45
2022-09-12T23:50:48.800Z,6.49
2022-09-12T23:53:50.579Z,6.52
2022-09-12T23:56:52.550Z,6.54
2022-09-12T23:59:54.154Z,6.59
